sensor_id;sensor_type;location;lat;lon;timestamp;P1;durP1;ratioP1;P2;durP2;ratioP2
50681;SDS011;36779;52.168;20.878;2023-04-02T01:23:22;6.40;;;3.90;;
50681;SDS011;36779;52.168;20.878;2023-04-02T01:26:02;5.80;;;3.00;;
50681;SDS011;36779;52.168;20.878;2023-04-02T01:28:52;6.10;;;3.20;;
50681;SDS011;36779;52.168;20.878;2023-04-02T01:31:28;5.30;;;2.40;;
50681;SDS011;36779;52.168;20.878;2023-04-02T01:33:59;7.30;;;3.00;;
50681;SDS011;36779;52.168;20.878;2023-04-02T01:36:36;6.30;;;3.10;;
50681;SDS011;36779;52.168;20.878;2023-04-02T01:39:16;6.00;;;3.00;;
50681;SDS011;36779;52.168;20.878;2023-04-02T01:41:55;6.20;;;2.70;;
50681;SDS011;36779;52.168;20.878;2023-04-02T01:44:32;5.10;;;2.30;;
50681;SDS011;36779;52.168;20.878;2023-04-02T01:47:09;5.90;;;2.30;;
50681;SDS011;36779;52.168;20.878;2023-04-02T01:49:40;6.70;;;3.50;;
50681;SDS011;36779;52.168;20.878;2023-04-02T01:52:12;6.40;;;3.10;;
50681;SDS011;36779;52.168;20.878;2023-04-02T01:54:45;5.40;;;2.60;;
50681;SDS011;36779;52.168;20.878;2023-04-02T01:57:14;5.30;;;2.70;;
50681;SDS011;36779;52.168;20.878;2023-04-02T01:59:46;4.20;;;2.20;;
50681;SDS011;36779;52.168;20.878;2023-04-02T02:02:16;7.30;;;3.30;;
50681;SDS011;36779;52.168;20.878;2023-04-02T02:04:48;5.50;;;2.80;;
50681;SDS011;36779;52.168;20.878;2023-04-02T02:07:18;5.20;;;2.80;;
50681;SDS011;36779;52.168;20.878;2023-04-02T02:09:51;5.50;;;3.00;;
50681;SDS011;36779;52.168;20.878;2023-04-02T02:12:20;4.30;;;2.40;;
50681;SDS011;36779;52.168;20.878;2023-04-02T02:14:50;6.30;;;2.40;;
50681;SDS011;36779;52.168;20.878;2023-04-02T02:17:23;3.70;;;1.80;;
50681;SDS011;36779;52.168;20.878;2023-04-02T02:20:01;4.70;;;1.80;;
50681;SDS011;36779;52.168;20.878;2023-04-02T02:22:37;4.10;;;1.80;;
50681;SDS011;36779;52.168;20.878;2023-04-02T02:25:12;4.00;;;1.70;;
50681;SDS011;36779;52.168;20.878;2023-04-02T02:27:48;7.00;;;2.30;;
50681;SDS011;36779;52.168;20.878;2023-04-02T02:30:26;4.30;;;2.60;;
50681;SDS011;36779;52.168;20.878;2023-04-02T02:33:00;4.80;;;2.10;;
50681;SDS011;36779;52.168;20.878;2023-04-02T02:35:36;6.00;;;2.30;;
50681;SDS011;36779;52.168;20.878;2023-04-02T02:41:18;4.60;;;2.10;;
50681;SDS011;36779;52.168;20.878;2023-04-02T02:43:54;5.90;;;2.30;;
50681;SDS011;36779;52.168;20.878;2023-04-02T02:46:27;5.20;;;2.30;;
50681;SDS011;36779;52.168;20.878;2023-04-02T02:49:00;3.70;;;2.10;;
50681;SDS011;36779;52.168;20.878;2023-04-02T02:51:38;3.70;;;2.20;;
50681;SDS011;36779;52.168;20.878;2023-04-02T02:54:13;4.00;;;1.60;;
50681;SDS011;36779;52.168;20.878;2023-04-02T02:56:45;3.80;;;2.50;;
50681;SDS011;36779;52.168;20.878;2023-04-02T02:59:18;9.50;;;3.40;;
50681;SDS011;36779;52.168;20.878;2023-04-02T03:01:51;5.60;;;1.70;;
50681;SDS011;36779;52.168;20.878;2023-04-02T03:04:21;6.40;;;2.60;;
50681;SDS011;36779;52.168;20.878;2023-04-02T03:06:54;7.20;;;3.20;;
50681;SDS011;36779;52.168;20.878;2023-04-02T03:09:30;6.50;;;3.20;;
50681;SDS011;36779;52.168;20.878;2023-04-02T03:12:06;8.40;;;3.50;;
50681;SDS011;36779;52.168;20.878;2023-04-02T03:14:52;6.70;;;3.50;;
50681;SDS011;36779;52.168;20.878;2023-04-02T03:17:29;9.30;;;3.80;;
50681;SDS011;36779;52.168;20.878;2023-04-02T03:20:06;6.40;;;2.60;;
50681;SDS011;36779;52.168;20.878;2023-04-02T03:22:44;6.90;;;3.30;;
50681;SDS011;36779;52.168;20.878;2023-04-02T03:25:26;8.30;;;3.30;;
50681;SDS011;36779;52.168;20.878;2023-04-02T03:28:03;6.20;;;3.30;;
50681;SDS011;36779;52.168;20.878;2023-04-02T03:30:41;8.40;;;3.70;;
50681;SDS011;36779;52.168;20.878;2023-04-02T03:33:18;7.20;;;4.30;;
50681;SDS011;36779;52.168;20.878;2023-04-02T03:35:53;5.50;;;2.70;;
50681;SDS011;36779;52.168;20.878;2023-04-02T03:38:29;8.90;;;3.90;;
50681;SDS011;36779;52.168;20.878;2023-04-02T03:41:02;6.20;;;3.20;;
50681;SDS011;36779;52.168;20.878;2023-04-02T03:43:39;10.50;;;4.60;;
50681;SDS011;36779;52.168;20.878;2023-04-02T03:46:16;9.90;;;4.50;;
50681;SDS011;36779;52.168;20.878;2023-04-02T03:48:54;9.90;;;4.50;;
50681;SDS011;36779;52.168;20.878;2023-04-02T03:51:26;6.60;;;3.00;;
50681;SDS011;36779;52.168;20.878;2023-04-02T03:54:03;7.50;;;3.50;;
50681;SDS011;36779;52.168;20.878;2023-04-02T03:56:34;8.40;;;3.50;;
50681;SDS011;36779;52.168;20.878;2023-04-02T03:59:12;8.90;;;4.10;;
50681;SDS011;36779;52.168;20.878;2023-04-02T04:01:51;7.30;;;3.40;;
50681;SDS011;36779;52.168;20.878;2023-04-02T04:04:24;8.30;;;3.40;;
50681;SDS011;36779;52.168;20.878;2023-04-02T04:06:57;10.60;;;5.10;;
50681;SDS011;36779;52.168;20.878;2023-04-02T04:09:28;11.80;;;4.20;;
50681;SDS011;36779;52.168;20.878;2023-04-02T04:12:07;12.10;;;5.20;;
50681;SDS011;36779;52.168;20.878;2023-04-02T04:14:47;11.30;;;4.90;;
50681;SDS011;36779;52.168;20.878;2023-04-02T04:17:22;13.20;;;5.40;;
50681;SDS011;36779;52.168;20.878;2023-04-02T04:20:01;17.60;;;7.00;;
50681;SDS011;36779;52.168;20.878;2023-04-02T04:22:41;8.30;;;4.10;;
50681;SDS011;36779;52.168;20.878;2023-04-02T04:25:17;11.10;;;4.20;;
50681;SDS011;36779;52.168;20.878;2023-04-02T04:27:53;10.90;;;3.90;;
50681;SDS011;36779;52.168;20.878;2023-04-02T04:30:38;12.80;;;5.10;;
50681;SDS011;36779;52.168;20.878;2023-04-02T04:33:18;12.40;;;4.60;;
50681;SDS011;36779;52.168;20.878;2023-04-02T04:35:55;10.00;;;4.20;;
50681;SDS011;36779;52.168;20.878;2023-04-02T04:38:29;18.20;;;7.00;;
50681;SDS011;36779;52.168;20.878;2023-04-02T04:41:02;15.30;;;5.50;;
50681;SDS011;36779;52.168;20.878;2023-04-02T04:43:36;11.70;;;4.70;;
50681;SDS011;36779;52.168;20.878;2023-04-02T04:46:12;14.60;;;6.30;;
50681;SDS011;36779;52.168;20.878;2023-04-02T04:48:51;13.40;;;5.90;;
50681;SDS011;36779;52.168;20.878;2023-04-02T04:51:28;6.00;;;2.90;;
50681;SDS011;36779;52.168;20.878;2023-04-02T04:54:01;14.20;;;6.10;;
50681;SDS011;36779;52.168;20.878;2023-04-02T04:56:31;12.80;;;5.50;;
50681;SDS011;36779;52.168;20.878;2023-04-02T04:59:11;13.20;;;5.40;;
50681;SDS011;36779;52.168;20.878;2023-04-02T05:01:47;13.20;;;5.00;;
50681;SDS011;36779;52.168;20.878;2023-04-02T05:04:22;12.40;;;5.50;;
50681;SDS011;36779;52.168;20.878;2023-04-02T05:06:59;14.40;;;5.70;;
50681;SDS011;36779;52.168;20.878;2023-04-02T05:09:35;14.90;;;5.40;;
50681;SDS011;36779;52.168;20.878;2023-04-02T05:12:15;12.90;;;5.80;;
50681;SDS011;36779;52.168;20.878;2023-04-02T05:14:49;13.70;;;5.40;;
50681;SDS011;36779;52.168;20.878;2023-04-02T05:17:25;12.00;;;4.50;;
50681;SDS011;36779;52.168;20.878;2023-04-02T05:20:01;12.80;;;5.00;;
50681;SDS011;36779;52.168;20.878;2023-04-02T05:22:40;15.10;;;5.70;;
50681;SDS011;36779;52.168;20.878;2023-04-02T05:25:19;15.00;;;6.00;;
50681;SDS011;36779;52.168;20.878;2023-04-02T05:27:52;14.30;;;5.10;;
50681;SDS011;36779;52.168;20.878;2023-04-02T05:30:44;17.90;;;6.80;;
50681;SDS011;36779;52.168;20.878;2023-04-02T05:33:21;15.70;;;6.00;;
50681;SDS011;36779;52.168;20.878;2023-04-02T05:35:56;19.20;;;6.80;;
50681;SDS011;36779;52.168;20.878;2023-04-02T05:38:29;19.60;;;7.90;;
50681;SDS011;36779;52.168;20.878;2023-04-02T05:41:02;14.10;;;6.00;;
50681;SDS011;36779;52.168;20.878;2023-04-02T05:43:33;20.20;;;6.30;;
50681;SDS011;36779;52.168;20.878;2023-04-02T05:46:11;14.70;;;4.60;;
50681;SDS011;36779;52.168;20.878;2023-04-02T05:48:46;19.50;;;7.30;;
50681;SDS011;36779;52.168;20.878;2023-04-02T05:51:19;17.80;;;6.40;;
50681;SDS011;36779;52.168;20.878;2023-04-02T05:53:56;14.80;;;5.60;;
50681;SDS011;36779;52.168;20.878;2023-04-02T05:56:28;16.60;;;5.50;;
50681;SDS011;36779;52.168;20.878;2023-04-02T05:59:04;20.90;;;7.10;;
50681;SDS011;36779;52.168;20.878;2023-04-02T06:01:41;21.90;;;7.50;;
50681;SDS011;36779;52.168;20.878;2023-04-02T06:04:18;16.90;;;6.50;;
50681;SDS011;36779;52.168;20.878;2023-04-02T06:06:55;16.20;;;5.80;;
50681;SDS011;36779;52.168;20.878;2023-04-02T06:09:33;15.50;;;5.60;;
50681;SDS011;36779;52.168;20.878;2023-04-02T06:12:14;17.30;;;6.50;;
50681;SDS011;36779;52.168;20.878;2023-04-02T06:14:49;10.30;;;4.00;;
50681;SDS011;36779;52.168;20.878;2023-04-02T06:17:20;11.00;;;5.20;;
50681;SDS011;36779;52.168;20.878;2023-04-02T06:19:50;11.40;;;4.90;;
50681;SDS011;36779;52.168;20.878;2023-04-02T06:22:23;12.80;;;4.50;;
50681;SDS011;36779;52.168;20.878;2023-04-02T06:24:59;12.00;;;4.40;;
50681;SDS011;36779;52.168;20.878;2023-04-02T06:27:38;11.10;;;4.40;;
50681;SDS011;36779;52.168;20.878;2023-04-02T06:30:15;12.10;;;4.20;;
50681;SDS011;36779;52.168;20.878;2023-04-02T06:32:50;12.50;;;5.50;;
50681;SDS011;36779;52.168;20.878;2023-04-02T06:35:20;9.50;;;3.70;;
50681;SDS011;36779;52.168;20.878;2023-04-02T06:37:59;8.40;;;3.60;;
50681;SDS011;36779;52.168;20.878;2023-04-02T06:40:37;14.10;;;4.40;;
50681;SDS011;36779;52.168;20.878;2023-04-02T06:43:29;9.80;;;3.20;;
50681;SDS011;36779;52.168;20.878;2023-04-02T06:46:18;8.00;;;3.20;;
50681;SDS011;36779;52.168;20.878;2023-04-02T06:49:01;10.10;;;3.90;;
50681;SDS011;36779;52.168;20.878;2023-04-02T06:51:38;10.30;;;3.80;;
50681;SDS011;36779;52.168;20.878;2023-04-02T06:54:12;9.60;;;4.40;;
50681;SDS011;36779;52.168;20.878;2023-04-02T06:56:45;10.50;;;4.70;;
50681;SDS011;36779;52.168;20.878;2023-04-02T06:59:21;8.70;;;3.20;;
50681;SDS011;36779;52.168;20.878;2023-04-02T07:01:55;10.20;;;3.80;;
50681;SDS011;36779;52.168;20.878;2023-04-02T07:04:27;6.20;;;2.40;;
50681;SDS011;36779;52.168;20.878;2023-04-02T07:06:57;6.70;;;2.40;;
50681;SDS011;36779;52.168;20.878;2023-04-02T07:09:30;11.60;;;4.10;;
50681;SDS011;36779;52.168;20.878;2023-04-02T07:12:01;7.50;;;2.60;;
50681;SDS011;36779;52.168;20.878;2023-04-02T07:14:38;8.60;;;4.00;;
50681;SDS011;36779;52.168;20.878;2023-04-02T07:17:08;7.00;;;3.10;;
50681;SDS011;36779;52.168;20.878;2023-04-02T07:19:44;8.60;;;3.30;;
50681;SDS011;36779;52.168;20.878;2023-04-02T07:22:17;6.50;;;3.00;;
50681;SDS011;36779;52.168;20.878;2023-04-02T07:24:54;8.90;;;3.60;;
50681;SDS011;36779;52.168;20.878;2023-04-02T07:27:23;5.30;;;2.60;;
50681;SDS011;36779;52.168;20.878;2023-04-02T07:29:52;9.20;;;3.40;;
50681;SDS011;36779;52.168;20.878;2023-04-02T07:32:24;11.50;;;4.50;;
50681;SDS011;36779;52.168;20.878;2023-04-02T07:34:54;7.40;;;3.50;;
50681;SDS011;36779;52.168;20.878;2023-04-02T07:37:23;5.50;;;2.20;;
50681;SDS011;36779;52.168;20.878;2023-04-02T07:39:52;9.70;;;3.60;;
50681;SDS011;36779;52.168;20.878;2023-04-02T07:42:21;7.30;;;3.00;;
50681;SDS011;36779;52.168;20.878;2023-04-02T07:44:51;7.20;;;3.40;;
50681;SDS011;36779;52.168;20.878;2023-04-02T07:47:20;8.00;;;3.60;;
50681;SDS011;36779;52.168;20.878;2023-04-02T07:49:52;8.00;;;3.00;;
50681;SDS011;36779;52.168;20.878;2023-04-02T07:52:23;10.00;;;3.90;;
50681;SDS011;36779;52.168;20.878;2023-04-02T07:54:52;8.10;;;3.70;;
50681;SDS011;36779;52.168;20.878;2023-04-02T07:57:21;12.50;;;4.40;;
50681;SDS011;36779;52.168;20.878;2023-04-02T07:59:50;7.90;;;3.30;;
50681;SDS011;36779;52.168;20.878;2023-04-02T08:02:22;5.80;;;2.70;;
50681;SDS011;36779;52.168;20.878;2023-04-02T08:04:52;6.60;;;2.60;;
50681;SDS011;36779;52.168;20.878;2023-04-02T08:07:22;8.40;;;3.00;;
50681;SDS011;36779;52.168;20.878;2023-04-02T08:09:51;8.60;;;3.60;;
50681;SDS011;36779;52.168;20.878;2023-04-02T08:12:20;10.10;;;3.60;;
50681;SDS011;36779;52.168;20.878;2023-04-02T08:14:49;13.00;;;4.80;;
50681;SDS011;36779;52.168;20.878;2023-04-02T08:17:19;9.50;;;3.80;;
50681;SDS011;36779;52.168;20.878;2023-04-02T08:19:47;9.60;;;4.00;;
50681;SDS011;36779;52.168;20.878;2023-04-02T08:22:22;7.40;;;3.10;;
50681;SDS011;36779;52.168;20.878;2023-04-02T08:24:51;10.70;;;4.30;;
50681;SDS011;36779;52.168;20.878;2023-04-02T08:27:20;9.20;;;4.60;;
50681;SDS011;36779;52.168;20.878;2023-04-02T08:29:49;8.90;;;3.70;;
50681;SDS011;36779;52.168;20.878;2023-04-02T08:32:18;7.10;;;3.10;;
50681;SDS011;36779;52.168;20.878;2023-04-02T08:34:49;7.30;;;3.00;;
50681;SDS011;36779;52.168;20.878;2023-04-02T08:37:22;7.70;;;3.40;;
50681;SDS011;36779;52.168;20.878;2023-04-02T08:39:51;5.50;;;2.70;;
50681;SDS011;36779;52.168;20.878;2023-04-02T08:42:21;8.20;;;3.60;;
50681;SDS011;36779;52.168;20.878;2023-04-02T08:45:00;5.30;;;2.40;;
50681;SDS011;36779;52.168;20.878;2023-04-02T08:47:52;6.80;;;3.10;;
50681;SDS011;36779;52.168;20.878;2023-04-02T08:50:27;6.10;;;3.10;;
50681;SDS011;36779;52.168;20.878;2023-04-02T08:52:59;7.60;;;3.60;;
50681;SDS011;36779;52.168;20.878;2023-04-02T08:55:35;8.70;;;4.10;;
50681;SDS011;36779;52.168;20.878;2023-04-02T08:58:12;9.70;;;4.10;;
50681;SDS011;36779;52.168;20.878;2023-04-02T09:00:54;12.20;;;4.70;;
50681;SDS011;36779;52.168;20.878;2023-04-02T09:03:26;7.40;;;4.00;;
50681;SDS011;36779;52.168;20.878;2023-04-02T09:05:59;9.70;;;4.30;;
50681;SDS011;36779;52.168;20.878;2023-04-02T09:08:31;7.80;;;3.70;;
50681;SDS011;36779;52.168;20.878;2023-04-02T09:11:04;9.00;;;3.80;;
50681;SDS011;36779;52.168;20.878;2023-04-02T09:13:38;10.20;;;4.10;;
50681;SDS011;36779;52.168;20.878;2023-04-02T09:16:15;6.50;;;3.20;;
50681;SDS011;36779;52.168;20.878;2023-04-02T09:18:49;9.40;;;3.10;;
50681;SDS011;36779;52.168;20.878;2023-04-02T09:21:24;9.00;;;3.60;;
50681;SDS011;36779;52.168;20.878;2023-04-02T09:24:01;8.70;;;3.40;;
50681;SDS011;36779;52.168;20.878;2023-04-02T09:26:37;7.10;;;3.50;;
50681;SDS011;36779;52.168;20.878;2023-04-02T09:29:18;8.20;;;3.60;;
50681;SDS011;36779;52.168;20.878;2023-04-02T09:32:06;7.50;;;2.90;;
50681;SDS011;36779;52.168;20.878;2023-04-02T09:34:52;7.00;;;2.60;;
50681;SDS011;36779;52.168;20.878;2023-04-02T09:37:45;7.60;;;3.50;;
50681;SDS011;36779;52.168;20.878;2023-04-02T09:40:20;4.60;;;2.70;;
50681;SDS011;36779;52.168;20.878;2023-04-02T09:45:41;6.70;;;3.10;;
50681;SDS011;36779;52.168;20.878;2023-04-02T09:48:23;8.40;;;3.80;;
50681;SDS011;36779;52.168;20.878;2023-04-02T09:51:18;5.30;;;2.70;;
50681;SDS011;36779;52.168;20.878;2023-04-02T09:54:03;7.60;;;3.20;;
50681;SDS011;36779;52.168;20.878;2023-04-02T09:56:42;4.40;;;2.20;;
50681;SDS011;36779;52.168;20.878;2023-04-02T09:59:29;3.70;;;2.00;;
50681;SDS011;36779;52.168;20.878;2023-04-02T10:02:16;4.80;;;2.20;;
50681;SDS011;36779;52.168;20.878;2023-04-02T10:05:01;4.80;;;2.50;;
50681;SDS011;36779;52.168;20.878;2023-04-02T10:07:39;3.60;;;1.70;;
50681;SDS011;36779;52.168;20.878;2023-04-02T10:10:20;5.70;;;2.30;;
50681;SDS011;36779;52.168;20.878;2023-04-02T10:12:59;4.60;;;2.40;;
50681;SDS011;36779;52.168;20.878;2023-04-02T10:15:36;4.10;;;1.90;;
50681;SDS011;36779;52.168;20.878;2023-04-02T10:18:15;4.30;;;2.40;;
50681;SDS011;36779;52.168;20.878;2023-04-02T10:20:58;5.00;;;2.40;;
50681;SDS011;36779;52.168;20.878;2023-04-02T10:23:33;3.60;;;1.60;;
50681;SDS011;36779;52.168;20.878;2023-04-02T10:29:18;3.90;;;1.80;;
50681;SDS011;36779;52.168;20.878;2023-04-02T10:32:07;3.90;;;1.90;;
50681;SDS011;36779;52.168;20.878;2023-04-02T10:34:48;4.30;;;2.10;;
50681;SDS011;36779;52.168;20.878;2023-04-02T10:40:34;4.30;;;2.00;;
50681;SDS011;36779;52.168;20.878;2023-04-02T10:49:00;3.10;;;1.70;;
50681;SDS011;36779;52.168;20.878;2023-04-02T10:51:43;3.60;;;1.60;;
50681;SDS011;36779;52.168;20.878;2023-04-02T10:54:25;6.20;;;2.00;;
50681;SDS011;36779;52.168;20.878;2023-04-02T10:57:07;4.00;;;1.90;;
50681;SDS011;36779;52.168;20.878;2023-04-02T10:59:56;4.00;;;1.80;;
50681;SDS011;36779;52.168;20.878;2023-04-02T11:02:36;3.60;;;2.00;;
50681;SDS011;36779;52.168;20.878;2023-04-02T11:05:13;3.40;;;1.40;;
50681;SDS011;36779;52.168;20.878;2023-04-02T11:07:56;5.40;;;1.70;;
50681;SDS011;36779;52.168;20.878;2023-04-02T11:10:50;4.10;;;1.90;;
50681;SDS011;36779;52.168;20.878;2023-04-02T11:13:26;5.30;;;2.70;;
50681;SDS011;36779;52.168;20.878;2023-04-02T11:15:58;5.90;;;2.20;;
50681;SDS011;36779;52.168;20.878;2023-04-02T11:18:29;4.70;;;1.70;;
50681;SDS011;36779;52.168;20.878;2023-04-02T11:21:05;5.70;;;1.80;;
50681;SDS011;36779;52.168;20.878;2023-04-02T11:23:56;3.20;;;1.70;;
50681;SDS011;36779;52.168;20.878;2023-04-02T11:26:29;3.50;;;2.10;;
50681;SDS011;36779;52.168;20.878;2023-04-02T11:34:57;5.60;;;2.60;;
50681;SDS011;36779;52.168;20.878;2023-04-02T11:37:52;3.70;;;1.80;;
50681;SDS011;36779;52.168;20.878;2023-04-02T11:52:21;7.50;;;3.20;;
50681;SDS011;36779;52.168;20.878;2023-04-02T11:54:56;8.50;;;4.10;;
50681;SDS011;36779;52.168;20.878;2023-04-02T12:00:21;9.20;;;3.30;;
50681;SDS011;36779;52.168;20.878;2023-04-02T12:03:14;4.80;;;2.20;;
50681;SDS011;36779;52.168;20.878;2023-04-02T12:06:00;7.00;;;3.50;;
50681;SDS011;36779;52.168;20.878;2023-04-02T12:08:40;5.30;;;2.90;;
50681;SDS011;36779;52.168;20.878;2023-04-02T12:11:30;8.00;;;4.30;;
50681;SDS011;36779;52.168;20.878;2023-04-02T12:14:05;8.50;;;3.50;;
50681;SDS011;36779;52.168;20.878;2023-04-02T12:16:49;7.10;;;3.60;;
50681;SDS011;36779;52.168;20.878;2023-04-02T12:19:19;6.20;;;3.30;;
50681;SDS011;36779;52.168;20.878;2023-04-02T12:21:48;9.30;;;4.10;;
50681;SDS011;36779;52.168;20.878;2023-04-02T12:24:20;7.10;;;3.60;;
50681;SDS011;36779;52.168;20.878;2023-04-02T12:27:06;6.10;;;2.80;;
50681;SDS011;36779;52.168;20.878;2023-04-02T12:29:41;4.70;;;2.10;;
50681;SDS011;36779;52.168;20.878;2023-04-02T12:32:18;7.00;;;3.20;;
50681;SDS011;36779;52.168;20.878;2023-04-02T12:39:53;6.40;;;3.10;;
50681;SDS011;36779;52.168;20.878;2023-04-02T12:42:29;6.40;;;3.20;;
50681;SDS011;36779;52.168;20.878;2023-04-02T12:44:59;5.20;;;2.30;;
50681;SDS011;36779;52.168;20.878;2023-04-02T12:47:32;7.60;;;3.50;;
50681;SDS011;36779;52.168;20.878;2023-04-02T12:50:01;6.00;;;3.30;;
50681;SDS011;36779;52.168;20.878;2023-04-02T12:52:30;6.90;;;2.90;;
50681;SDS011;36779;52.168;20.878;2023-04-02T12:55:00;11.00;;;4.60;;
50681;SDS011;36779;52.168;20.878;2023-04-02T12:57:33;10.40;;;4.90;;
50681;SDS011;36779;52.168;20.878;2023-04-02T13:05:49;7.90;;;3.90;;
50681;SDS011;36779;52.168;20.878;2023-04-02T13:08:22;7.00;;;3.50;;
50681;SDS011;36779;52.168;20.878;2023-04-02T13:10:57;5.70;;;3.30;;
50681;SDS011;36779;52.168;20.878;2023-04-02T13:13:29;8.50;;;3.60;;
50681;SDS011;36779;52.168;20.878;2023-04-02T13:16:03;4.70;;;2.60;;
50681;SDS011;36779;52.168;20.878;2023-04-02T13:18:47;9.00;;;3.70;;
50681;SDS011;36779;52.168;20.878;2023-04-02T13:21:23;7.90;;;3.70;;
50681;SDS011;36779;52.168;20.878;2023-04-02T13:23:55;8.30;;;3.80;;
50681;SDS011;36779;52.168;20.878;2023-04-02T13:26:25;9.70;;;5.00;;
50681;SDS011;36779;52.168;20.878;2023-04-02T13:28:56;8.30;;;4.10;;
50681;SDS011;36779;52.168;20.878;2023-04-02T13:31:27;8.60;;;3.20;;
50681;SDS011;36779;52.168;20.878;2023-04-02T13:33:58;6.60;;;3.20;;
50681;SDS011;36779;52.168;20.878;2023-04-02T13:36:28;7.60;;;3.60;;
50681;SDS011;36779;52.168;20.878;2023-04-02T13:38:59;11.40;;;3.70;;
50681;SDS011;36779;52.168;20.878;2023-04-02T13:41:31;7.80;;;2.70;;
50681;SDS011;36779;52.168;20.878;2023-04-02T13:44:03;10.60;;;3.80;;
50681;SDS011;36779;52.168;20.878;2023-04-02T13:46:33;4.00;;;2.00;;
50681;SDS011;36779;52.168;20.878;2023-04-02T13:49:04;6.90;;;3.10;;
50681;SDS011;36779;52.168;20.878;2023-04-02T13:51:39;5.50;;;3.30;;
50681;SDS011;36779;52.168;20.878;2023-04-02T13:54:13;8.30;;;3.50;;
50681;SDS011;36779;52.168;20.878;2023-04-02T13:56:47;5.50;;;2.40;;
50681;SDS011;36779;52.168;20.878;2023-04-02T13:59:19;2.70;;;1.40;;
50681;SDS011;36779;52.168;20.878;2023-04-02T14:01:48;7.60;;;3.50;;
50681;SDS011;36779;52.168;20.878;2023-04-02T14:04:20;3.90;;;2.10;;
50681;SDS011;36779;52.168;20.878;2023-04-02T14:06:59;4.50;;;2.50;;
50681;SDS011;36779;52.168;20.878;2023-04-02T14:09:46;6.10;;;2.30;;
50681;SDS011;36779;52.168;20.878;2023-04-02T14:12:31;3.40;;;1.60;;
50681;SDS011;36779;52.168;20.878;2023-04-02T14:18:05;6.00;;;2.20;;
50681;SDS011;36779;52.168;20.878;2023-04-02T14:21:04;7.90;;;2.40;;
50681;SDS011;36779;52.168;20.878;2023-04-02T14:23:56;7.80;;;3.40;;
50681;SDS011;36779;52.168;20.878;2023-04-02T14:26:47;7.20;;;2.80;;
50681;SDS011;36779;52.168;20.878;2023-04-02T14:29:27;5.10;;;2.00;;
50681;SDS011;36779;52.168;20.878;2023-04-02T14:32:04;8.10;;;2.50;;
50681;SDS011;36779;52.168;20.878;2023-04-02T14:34:44;5.20;;;2.50;;
50681;SDS011;36779;52.168;20.878;2023-04-02T14:37:25;3.90;;;1.90;;
50681;SDS011;36779;52.168;20.878;2023-04-02T14:40:03;5.70;;;2.80;;
50681;SDS011;36779;52.168;20.878;2023-04-02T14:42:48;4.20;;;2.10;;
50681;SDS011;36779;52.168;20.878;2023-04-02T14:45:28;4.90;;;2.10;;
50681;SDS011;36779;52.168;20.878;2023-04-02T14:48:18;3.60;;;1.40;;
50681;SDS011;36779;52.168;20.878;2023-04-02T14:50:56;4.00;;;1.80;;
50681;SDS011;36779;52.168;20.878;2023-04-02T14:53:29;4.50;;;2.20;;
50681;SDS011;36779;52.168;20.878;2023-04-02T14:56:04;5.30;;;2.30;;
50681;SDS011;36779;52.168;20.878;2023-04-02T14:58:42;5.70;;;1.60;;
50681;SDS011;36779;52.168;20.878;2023-04-02T15:01:19;4.90;;;2.10;;
50681;SDS011;36779;52.168;20.878;2023-04-02T15:03:52;5.50;;;2.70;;
50681;SDS011;36779;52.168;20.878;2023-04-02T15:06:26;5.00;;;2.00;;
50681;SDS011;36779;52.168;20.878;2023-04-02T15:09:02;6.20;;;2.70;;
50681;SDS011;36779;52.168;20.878;2023-04-02T15:11:41;4.70;;;2.10;;
50681;SDS011;36779;52.168;20.878;2023-04-02T15:14:16;4.40;;;2.30;;
50681;SDS011;36779;52.168;20.878;2023-04-02T15:16:52;5.80;;;2.30;;
50681;SDS011;36779;52.168;20.878;2023-04-02T15:19:22;4.90;;;2.20;;
50681;SDS011;36779;52.168;20.878;2023-04-02T15:21:56;5.90;;;2.80;;
50681;SDS011;36779;52.168;20.878;2023-04-02T15:24:41;7.00;;;2.80;;
50681;SDS011;36779;52.168;20.878;2023-04-02T15:27:28;6.90;;;2.80;;
50681;SDS011;36779;52.168;20.878;2023-04-02T15:30:19;3.60;;;2.10;;
50681;SDS011;36779;52.168;20.878;2023-04-02T15:32:54;5.10;;;2.00;;
50681;SDS011;36779;52.168;20.878;2023-04-02T15:35:46;5.00;;;1.90;;
50681;SDS011;36779;52.168;20.878;2023-04-02T15:38:19;6.10;;;2.80;;
50681;SDS011;36779;52.168;20.878;2023-04-02T15:40:54;7.10;;;3.00;;
50681;SDS011;36779;52.168;20.878;2023-04-02T15:43:29;6.70;;;3.20;;
50681;SDS011;36779;52.168;20.878;2023-04-02T15:46:06;4.20;;;1.80;;
50681;SDS011;36779;52.168;20.878;2023-04-02T15:48:56;6.30;;;2.30;;
50681;SDS011;36779;52.168;20.878;2023-04-02T15:51:37;3.60;;;1.60;;
50681;SDS011;36779;52.168;20.878;2023-04-02T15:54:23;3.80;;;1.80;;
50681;SDS011;36779;52.168;20.878;2023-04-02T15:57:07;5.00;;;2.30;;
50681;SDS011;36779;52.168;20.878;2023-04-02T15:59:53;5.90;;;2.30;;
50681;SDS011;36779;52.168;20.878;2023-04-02T16:02:42;4.50;;;1.60;;
50681;SDS011;36779;52.168;20.878;2023-04-02T16:05:31;6.10;;;2.40;;
50681;SDS011;36779;52.168;20.878;2023-04-02T16:08:13;4.30;;;2.00;;
50681;SDS011;36779;52.168;20.878;2023-04-02T16:10:51;3.10;;;1.50;;
50681;SDS011;36779;52.168;20.878;2023-04-02T16:13:24;2.70;;;1.60;;
50681;SDS011;36779;52.168;20.878;2023-04-02T16:15:59;5.40;;;2.20;;
50681;SDS011;36779;52.168;20.878;2023-04-02T16:18:38;3.70;;;2.10;;
50681;SDS011;36779;52.168;20.878;2023-04-02T16:21:13;5.20;;;2.00;;
50681;SDS011;36779;52.168;20.878;2023-04-02T16:23:46;6.30;;;2.60;;
50681;SDS011;36779;52.168;20.878;2023-04-02T16:26:29;4.00;;;2.50;;
50681;SDS011;36779;52.168;20.878;2023-04-02T16:29:07;6.20;;;2.60;;
50681;SDS011;36779;52.168;20.878;2023-04-02T16:31:49;4.70;;;1.90;;
50681;SDS011;36779;52.168;20.878;2023-04-02T16:34:29;4.70;;;1.90;;
50681;SDS011;36779;52.168;20.878;2023-04-02T16:37:09;3.40;;;1.80;;
50681;SDS011;36779;52.168;20.878;2023-04-02T16:39:45;4.40;;;2.50;;
50681;SDS011;36779;52.168;20.878;2023-04-02T16:42:21;4.90;;;1.70;;
50681;SDS011;36779;52.168;20.878;2023-04-02T16:45:01;6.70;;;2.50;;
50681;SDS011;36779;52.168;20.878;2023-04-02T16:47:48;5.50;;;2.70;;
50681;SDS011;36779;52.168;20.878;2023-04-02T16:50:28;7.70;;;3.50;;
50681;SDS011;36779;52.168;20.878;2023-04-02T16:53:06;5.80;;;2.90;;
50681;SDS011;36779;52.168;20.878;2023-04-02T16:55:49;9.70;;;3.40;;
50681;SDS011;36779;52.168;20.878;2023-04-02T16:58:32;7.80;;;3.60;;
50681;SDS011;36779;52.168;20.878;2023-04-02T17:01:15;5.40;;;2.80;;
50681;SDS011;36779;52.168;20.878;2023-04-02T17:04:02;6.80;;;2.30;;
50681;SDS011;36779;52.168;20.878;2023-04-02T17:06:45;4.90;;;2.20;;
50681;SDS011;36779;52.168;20.878;2023-04-02T17:09:25;6.00;;;2.20;;
50681;SDS011;36779;52.168;20.878;2023-04-02T17:12:03;6.40;;;1.90;;
50681;SDS011;36779;52.168;20.878;2023-04-02T17:14:46;5.60;;;2.00;;
50681;SDS011;36779;52.168;20.878;2023-04-02T17:17:19;8.60;;;3.10;;
50681;SDS011;36779;52.168;20.878;2023-04-02T17:19:50;5.60;;;2.60;;
50681;SDS011;36779;52.168;20.878;2023-04-02T17:22:23;8.20;;;3.80;;
50681;SDS011;36779;52.168;20.878;2023-04-02T17:24:53;6.20;;;2.80;;
50681;SDS011;36779;52.168;20.878;2023-04-02T17:27:29;7.20;;;3.40;;
50681;SDS011;36779;52.168;20.878;2023-04-02T17:30:03;11.60;;;3.50;;
50681;SDS011;36779;52.168;20.878;2023-04-02T17:32:40;6.00;;;3.00;;
50681;SDS011;36779;52.168;20.878;2023-04-02T17:35:16;8.00;;;4.00;;
50681;SDS011;36779;52.168;20.878;2023-04-02T17:37:50;7.80;;;3.80;;
50681;SDS011;36779;52.168;20.878;2023-04-02T17:40:28;10.30;;;3.50;;